SBFZSBTE

Guest
Details From SBFZ - Pinto Martins
To SBTE - Senador Petronio Portella
Flight Number -
Tags decoded
Created
Modified
Stats Distance 277 nm / 512 km
Max Altitude 0 ft / 0 m
Waypoints 4
Social Downloads 5
Likes 0
Share VATSIM

Download

Looking for another format? Having issues loading an existing format? Contact us
Advertisement - Login to hide

Notes

Requested: SBFZ URT NOBRE SBTE

Route

SBFZ URT NOBRE SBTE

ID Type Via Altitude Latitude Longitude Leg Dist Tot Dist Heading (true) Name
O SBFZ APT - 0 ft / 0 m -3.77628˚ -38.53256˚ - 0 nm - Pinto Martins
URT NDB - 0 ft / 0 m -3.58550˚ -39.42667˚ 54 nm 54 nm 282° / 282° URUBURETAMA NDB
NOBRE FIX - 0 ft / 0 m -4.80067˚ -42.21183˚ 182 nm 236 nm 246° / 246° -
O SBTE APT - 0 ft / 0 m -5.05994˚ -42.82348˚ 39 nm 276 nm 247° / 247° Senador Petronio Portella

Altitude Profile

Advertisement - Login to hide

Weather


0- 5 10 15 20 25 30 35+ Temperature / ° C

Clouds and Precipitation
Forecast for 2017-12-15 06:00 UTC. Updated 2 hours ago

Ground ~20,000 ft ~40,000 ft Winds

SBFZ

Details ICAO SBFZ (FOR)
Name Pinto Martins
Region Brazil
Timezone America/Fortaleza (UTC-3.0)
Stats Elevation 82 ft / 25 m (AMSL)
Location -3.776283° -38.532556°
Runways 1
Magnetic Variation 21.126° W

METAR

SBFZ 150300Z 06005KT 9999 SCT020 27/22 Q1013

Decode

TAF

TAF SBFZ 142200Z 1500/1524 08009KT 9999 SCT020 TN27/1508Z TX31/1515Z BECMG 1511/1513 08014KT BECMG 1520/1521 07009KT RMK PEI

Decode

Departure Runways

ID Width Length Bearing (true) Bearing (mag) Surface Threshold Offset Overrun Length
13 148 ft / 45 m 8,360 ft / 2,548 m 104.88° 126.01° Asphalt 0 ft / 0 m 195 ft / 59 m
31 148 ft / 45 m 8,360 ft / 2,548 m 284.88° 306.01° Asphalt 0 ft / 0 m 125 ft / 38 m

SBTE

Details ICAO SBTE (THE)
Name Senador Petronio Portella
Region Brazil
Timezone America/Fortaleza (UTC-3.0)
Stats Elevation 219 ft / 67 m (AMSL)
Location -5.059940° -42.823478°
Runways 1
Magnetic Variation 21.543° W

METAR

SBTE 150200Z 35008KT CAVOK 29/22 Q1012

Decode

TAF

TAF SBTE 142200Z 1500/1512 34005KT 8000 BKN030 TX30/1500Z TN24/1507Z PROB30 1502/1504 6000 TSRA BKN020 FEW030CB PROB30 1508/1509 BKN008 RMK PEI

Decode

Destination Runways

ID Width Length Bearing (true) Bearing (mag) Surface Threshold Offset Overrun Length
02 148 ft / 45 m 7,246 ft / 2,209 m 354.11° 15.65° Asphalt 0 ft / 0 m 190 ft / 58 m
20 148 ft / 45 m 7,246 ft / 2,209 m 174.12° 195.66° Asphalt 0 ft / 0 m 190 ft / 58 m

Popular Alternatives